Weather at Manchester-Boston Regional Airport

Public forecast

Using degrees Fahrenheit for public forecast. Weather courtesy of forecast.io.

Current aviation weather report (METAR) for Manchester-Boston Regional Airport

Retrieved 2020/10/26 03:53 UTC (38 minutes ago):

KMHT 260353Z 35003KT 10SM FEW130 SCT250 03/01 A3035 RMK AO2 SLP295 T00330006

Aviation forecast (TAF) for Manchester-Boston Regional Airport

Retrieved 2020-10-26 00:22 UTC (4 hours ago):

TAF KMHT 252320Z 2600/2624 VRB03KT P6SM SCT250 FM260900 VRB04KT P6SM OVC040 FM261400 05004KT 6SM -SHRA OVC020 FM261600 06004KT 4SM -SHRA BR OVC007